sensor_id;sensor_type;location;lat;lon;timestamp;temperature;humidity
1227;DHT22;13131;52.01168960;8.54078325;2022-10-16T07:26:10;13.90;99.90
1227;DHT22;13131;52.01168960;8.54078325;2022-10-16T07:28:38;13.90;99.90
1227;DHT22;13131;52.01168960;8.54078325;2022-10-16T07:31:12;14.00;99.90
1227;DHT22;13131;52.01168960;8.54078325;2022-10-16T07:33:43;14.10;99.90
1227;DHT22;13131;52.01168960;8.54078325;2022-10-16T07:36:14;14.20;99.90
1227;DHT22;13131;52.01168960;8.54078325;2022-10-16T07:38:46;14.10;99.90
1227;DHT22;13131;52.01168960;8.54078325;2022-10-16T07:41:16;14.10;99.90
1227;DHT22;13131;52.01168960;8.54078325;2022-10-16T07:43:47;14.20;99.90
1227;DHT22;13131;52.01168960;8.54078325;2022-10-16T07:46:17;14.30;99.90
1227;DHT22;13131;52.01168960;8.54078325;2022-10-16T07:48:45;14.30;52.00
1227;DHT22;13131;52.01168960;8.54078325;2022-10-16T07:51:16;14.30;1.00
1227;DHT22;13131;52.01168960;8.54078325;2022-10-16T07:53:45;14.30;37.90
1227;DHT22;13131;52.01168960;8.54078325;2022-10-16T07:56:13;14.20;17.00
1227;DHT22;13131;52.01168960;8.54078325;2022-10-16T07:58:41;14.10;99.90
1227;DHT22;13131;52.01168960;8.54078325;2022-10-16T08:01:11;13.90;99.90
1227;DHT22;13131;52.01168960;8.54078325;2022-10-16T08:03:41;13.90;99.90
1227;DHT22;13131;52.01168960;8.54078325;2022-10-16T08:06:09;13.80;99.90
1227;DHT22;13131;52.01168960;8.54078325;2022-10-16T08:08:37;13.80;99.90
1227;DHT22;13131;52.01168960;8.54078325;2022-10-16T08:11:05;13.90;99.90
1227;DHT22;13131;52.01168960;8.54078325;2022-10-16T08:13:32;14.00;99.90
1227;DHT22;13131;52.01168960;8.54078325;2022-10-16T08:16:00;14.10;99.90
1227;DHT22;13131;52.01168960;8.54078325;2022-10-16T08:18:27;14.30;99.90
1227;DHT22;13131;52.01168960;8.54078325;2022-10-16T08:20:56;14.40;99.90
1227;DHT22;13131;52.01168960;8.54078325;2022-10-16T08:23:25;14.50;99.90
1227;DHT22;13131;52.01168960;8.54078325;2022-10-16T08:25:54;14.60;1.00
1227;DHT22;13131;52.01168960;8.54078325;2022-10-16T08:28:22;14.70;1.00
1227;DHT22;13131;52.01168960;8.54078325;2022-10-16T08:30:50;14.80;99.90
1227;DHT22;13131;52.01168960;8.54078325;2022-10-16T08:33:17;14.80;1.00
1227;DHT22;13131;52.01168960;8.54078325;2022-10-16T08:35:52;14.90;1.00
1227;DHT22;13131;52.01168960;8.54078325;2022-10-16T08:38:21;15.00;1.00
1227;DHT22;13131;52.01168960;8.54078325;2022-10-16T08:40:48;15.00;1.00
1227;DHT22;13131;52.01168960;8.54078325;2022-10-16T08:48:49;15.20;99.90
1227;DHT22;13131;52.01168960;8.54078325;2022-10-16T08:51:18;15.20;99.90
1227;DHT22;13131;52.01168960;8.54078325;2022-10-16T08:54:10;15.30;1.00
1227;DHT22;13131;52.01168960;8.54078325;2022-10-16T08:56:30;15.30;99.90
1227;DHT22;13131;52.01168960;8.54078325;2022-10-16T08:59:00;15.40;1.00
1227;DHT22;13131;52.01168960;8.54078325;2022-10-16T09:01:40;15.40;11.10
1227;DHT22;13131;52.01168960;8.54078325;2022-10-16T09:04:27;15.40;99.90
1227;DHT22;13131;52.01168960;8.54078325;2022-10-16T09:07:11;15.50;1.00
1227;DHT22;13131;52.01168960;8.54078325;2022-10-16T09:12:37;15.70;99.90
1227;DHT22;13131;52.01168960;8.54078325;2022-10-16T09:15:20;15.80;1.00
1227;DHT22;13131;52.01168960;8.54078325;2022-10-16T09:25:34;16.00;1.00
1227;DHT22;13131;52.01168960;8.54078325;2022-10-16T09:28:02;16.10;99.90
1227;DHT22;13131;52.01168960;8.54078325;2022-10-16T09:30:29;16.20;99.90
1227;DHT22;13131;52.01168960;8.54078325;2022-10-16T09:32:58;16.40;1.00
1227;DHT22;13131;52.01168960;8.54078325;2022-10-16T09:35:40;16.60;1.00
1227;DHT22;13131;52.01168960;8.54078325;2022-10-16T09:38:09;16.80;1.00
1227;DHT22;13131;52.01168960;8.54078325;2022-10-16T09:40:39;16.80;1.00
1227;DHT22;13131;52.01168960;8.54078325;2022-10-16T09:43:23;16.80;1.00
1227;DHT22;13131;52.01168960;8.54078325;2022-10-16T09:46:02;16.50;1.00
1227;DHT22;13131;52.01168960;8.54078325;2022-10-16T09:48:36;16.30;1.00
1227;DHT22;13131;52.01168960;8.54078325;2022-10-16T09:51:03;16.20;19.90
1227;DHT22;13131;52.01168960;8.54078325;2022-10-16T09:53:44;16.20;1.00
1227;DHT22;13131;52.01168960;8.54078325;2022-10-16T09:56:28;16.00;1.00
1227;DHT22;13131;52.01168960;8.54078325;2022-10-16T09:58:54;16.00;51.30
1227;DHT22;13131;52.01168960;8.54078325;2022-10-16T10:01:28;16.20;99.90
1227;DHT22;13131;52.01168960;8.54078325;2022-10-16T10:03:57;16.30;1.00
1227;DHT22;13131;52.01168960;8.54078325;2022-10-16T21:30:15;14.60;99.90
